Data for 12/26/2012

Time Sea-Level Adjusted Pressure Absolute Pressure Temperature Relative Humidity Dew Point   
(mb) (inHg) (mb) (inHg) (C) (F) (%) (C) (F)
00:05 1012 29.88 841 24.83 -9.3 15.3 79 -12.3 9.8
00:10 1012 29.88 841 24.83 -9.2 15.4 79 -12.2 10
00:15 1012 29.88 841 24.83 -9.2 15.5 78 -12.3 9.8
00:20 1012 29.88 841 24.83 -9.3 15.3 79 -12.3 9.8
00:25 1012 29.88 841 24.83 -9.4 15 78 -12.5 9.5
00:30 1012 29.88 841 24.83 -9.6 14.8 79 -12.5 9.5
00:35 1012 29.88 841 24.83 -9.5 14.9 78 -12.6 9.3
00:40 1012 29.88 841 24.83 -9.5 15 77 -12.8 8.9
00:45 1012 29.88 841 24.83 -9.4 15.1 78 -12.6 9.3
00:50 1012 29.88 841 24.83 -9.5 15 78 -12.6 9.4
00:55 1011 29.85 841 24.83 -9.4 15.1 78 -12.5 9.5
01:00 1011 29.85 841 24.83 -9.4 15.1 78 -12.5 9.4
01:05 1011 29.85 841 24.83 -9.4 15 79 -12.5 9.5
01:10 1011 29.85 841 24.83 -9.4 15.2 78 -12.5 9.5
01:15 1011 29.85 841 24.83 -9.3 15.3 76 -12.7 9.1
01:20 1011 29.85 841 24.83 -9.3 15.3 77 -12.6 9.4
01:25 1011 29.85 841 24.83 -9.5 14.9 77 -12.8 9
01:30 1011 29.85 840 24.81 -9.5 14.9 78 -12.6 9.3
01:35 1011 29.85 840 24.81 -9.4 15.1 78 -12.5 9.5
01:40 1011 29.85 840 24.81 -9.4 15.1 79 -12.5 9.6
01:45 1011 29.85 840 24.81 -9.5 14.9 79 -12.4 9.7
01:50 1011 29.85 840 24.81 -9.4 15 81 -12.1 10.2
01:55 1011 29.85 840 24.81 -9.5 15 81 -12.1 10.2
02:00 1011 29.85 840 24.81 -9.4 15.1 79 -12.4 9.6
02:05 1010 29.83 840 24.81 -9.3 15.3 78 -12.5 9.5
02:10 1010 29.83 840 24.81 -9.2 15.4 78 -12.4 9.6
02:15 1010 29.83 840 24.81 -9.1 15.7 78 -12.2 10
02:20 1010 29.83 840 24.81 -8.9 15.9 77 -12.2 10
02:25 1010 29.83 840 24.81 -8.8 16.2 76 -12.3 9.8
02:30 1010 29.83 840 24.81 -8.4 16.8 71 -12.7 9.1
02:35 1010 29.83 840 24.81 -8.1 17.5 74 -12 10.5
02:40 1010 29.83 840 24.81 -8 17.7 73 -12.1 10.3
02:45 1010 29.83 839 24.78 -7.9 17.7 73 -12 10.4
02:50 1010 29.83 839 24.78 -7.8 17.9 74 -11.7 11
02:55 1010 29.83 839 24.78 -8 17.7 73 -12 10.4
03:00 1010 29.83 839 24.78 -8 17.7 77 -11.3 11.7
03:05 1010 29.83 839 24.78 -8.3 17.1 79 -11.3 11.7
03:10 1010 29.83 839 24.78 -8.6 16.5 81 -11.3 11.6
03:15 1010 29.83 839 24.78 -8.7 16.3 82 -11.3 11.6
03:20 1010 29.83 839 24.78 -8.5 16.8 81 -11.2 11.8
03:25 1010 29.83 839 24.78 -8.4 16.9 80 -11.2 11.8
03:30 1010 29.83 839 24.78 -8.5 16.6 79 -11.6 11.2
03:35 1010 29.83 839 24.78 -8.8 16.2 80 -11.6 11.1
03:40 1010 29.83 839 24.78 -9 15.9 81 -11.6 11.1
03:45 1010 29.83 839 24.78 -9.1 15.6 82 -11.6 11.1
03:50 1010 29.83 839 24.78 -9.1 15.6 81 -11.8 10.7
03:55 1010 29.83 839 24.78 -9.1 15.7 79 -12 10.4
04:00 1010 29.83 839 24.78 -9 15.9 78 -12.1 10.2
04:05 1010 29.83 839 24.78 -8.9 16 79 -11.9 10.5
04:10 1010 29.83 839 24.78 -8.8 16.1 78 -12 10.5
04:15 1010 29.83 839 24.78 -8.9 16.1 78 -12 10.3
04:20 1010 29.83 839 24.78 -8.9 16 79 -12 10.5
04:25 1010 29.83 839 24.78 -8.8 16.1 79 -11.9 10.6
04:30 1010 29.83 839 24.78 -8.8 16.1 82 -11.4 11.4
04:35 1010 29.83 839 24.78 -9 15.9 83 -11.4 11.5
04:40 1010 29.83 839 24.78 -9.1 15.6 83 -11.5 11.3
04:45 1010 29.83 839 24.78 -9.2 15.4 84 -11.4 11.4
04:50 1010 29.83 839 24.78 -9.3 15.2 85 -11.5 11.3
04:55 1009 29.8 839 24.78 -9.3 15.2 84 -11.6 11.2
05:00 1009 29.8 839 24.78 -9.3 15.3 84 -11.6 11.2
05:05 1009 29.8 839 24.78 -9.3 15.3 84 -11.5 11.3
05:10 1009 29.8 839 24.78 -9.2 15.4 84 -11.4 11.4
05:15 1009 29.8 839 24.78 -9.1 15.7 84 -11.3 11.6
05:20 1009 29.8 839 24.78 -9 15.8 83 -11.4 11.6
05:25 1009 29.8 839 24.78 -8.9 16 83 -11.3 11.7
05:30 1009 29.8 839 24.78 -8.8 16.1 83 -11.3 11.7
05:35 1009 29.8 838 24.75 -8.7 16.4 82 -11.2 11.9
05:40 1009 29.8 838 24.75 -8.7 16.3 83 -11.1 12
05:45 1009 29.8 838 24.75 -8.4 16.8 82 -11 12.1
05:50 1009 29.8 838 24.75 -8.3 17 82 -10.9 12.4
05:55 1009 29.8 838 24.75 -8.5 16.8 83 -10.9 12.3
06:00 1009 29.8 838 24.75 -8.2 17.3 82 -10.8 12.6
06:05 1009 29.8 838 24.75 -8.2 17.3 82 -10.8 12.6
06:10 1009 29.8 838 24.75 -8.5 16.8 83 -10.9 12.5
06:15 1009 29.8 838 24.75 -8.6 16.5 84 -10.8 12.5
06:20 1009 29.8 838 24.75 -8.3 17.1 82 -10.9 12.4
06:25 1009 29.8 838 24.75 -8.3 17.1 83 -10.7 12.7
06:30 1009 29.8 838 24.75 -8.4 16.9 82 -10.9 12.3
06:35 1009 29.8 838 24.75 -8.4 16.9 82 -10.9 12.4
06:40 1009 29.8 838 24.75 -8.5 16.8 82 -11 12.3
06:45 1009 29.8 838 24.75 -8.4 16.8 82 -11 12.2
06:50 1009 29.8 838 24.75 -8.4 17 80 -11.2 11.9
06:55 1009 29.8 838 24.75 -8.4 16.9 80 -11.3 11.7
07:00 1009 29.8 838 24.75 -8.5 16.6 79 -11.6 11.2
07:05 1009 29.8 838 24.75 -8.8 16.2 80 -11.7 11
07:10 1009 29.8 838 24.75 -9 15.9 80 -11.8 10.8
07:15 1009 29.8 838 24.75 -9.1 15.7 81 -11.8 10.8
07:20 1009 29.8 838 24.75 -9 15.9 79 -12 10.3
07:25 1009 29.8 838 24.75 -8.7 16.3 80 -11.7 11
07:30 1009 29.8 838 24.75 -9 15.7 82 -11.5 11.2
07:35 1009 29.8 838 24.75 -9.2 15.4 86 -11.2 11.9
07:40 1009 29.8 838 24.75 -9.3 15.4 86 -11.2 11.8
07:45 1009 29.8 838 24.75 -8.9 16.1 84 -11.1 12
07:50 1009 29.8 838 24.75 -8.6 16.5 81 -11.3 11.7
07:55 1009 29.8 838 24.75 -8.5 16.8 79 -11.5 11.3
08:00 1009 29.8 838 24.75 -8.5 16.8 81 -11.1 12
08:05 1009 29.8 838 24.75 -8.8 16.1 83 -11.2 11.8
08:10 1009 29.8 838 24.75 -8.9 16 83 -11.2 11.8
08:15 1009 29.8 838 24.75 -9.2 15.5 83 -11.6 11.2
08:20 1009 29.8 838 24.75 -8.9 15.9 81 -11.6 11.2
08:25 1009 29.8 838 24.75 -9.2 15.4 83 -11.6 11.1
08:30 1009 29.8 838 24.75 -9.4 15.2 83 -11.7 10.9
08:35 1009 29.8 838 24.75 -9.3 15.3 82 -11.8 10.8
08:40 1009 29.8 838 24.75 -9.4 15.1 82 -12 10.5
08:45 1009 29.8 838 24.75 -9.3 15.3 82 -11.8 10.8
08:50 1009 29.8 838 24.75 -9.4 15.1 81 -12.1 10.3
08:55 1009 29.8 838 24.75 -9.3 15.3 81 -12 10.4
09:00 1009 29.8 838 24.75 -9.1 15.6 79 -12.1 10.3
09:05 1009 29.8 838 24.75 -9 15.9 80 -11.8 10.7
09:10 1009 29.8 838 24.75 -8.9 15.9 78 -12.1 10.2
09:15 1009 29.8 838 24.75 -9.2 15.4 81 -11.9 10.5
09:20 1009 29.8 838 24.75 -9.1 15.6 79 -12.1 10.2
09:25 1009 29.8 838 24.75 -9.1 15.7 81 -11.8 10.8
09:30 1009 29.8 838 24.75 -9.1 15.6 80 -12 10.5
09:35 1009 29.8 838 24.75 -9.5 14.9 83 -11.9 10.6
09:40 1009 29.8 838 24.75 -9.2 15.5 81 -11.9 10.5
09:45 1009 29.8 838 24.75 -9 15.8 80 -11.9 10.5
09:50 1009 29.8 838 24.75 -9.5 15 80 -12.2 10
09:55 1009 29.8 838 24.75 -9.7 14.5 81 -12.3 9.8
10:00 1009 29.8 838 24.75 -9.7 14.6 80 -12.4 9.6
10:05 1009 29.8 838 24.75 -9.4 15.1 81 -12.1 10.1
10:10 1009 29.8 838 24.75 -9.2 15.4 80 -12 10.4
10:15 1009 29.8 838 24.75 -9.5 15 81 -12.1 10.2
10:20 1009 29.8 838 24.75 -9.6 14.7 81 -12.3 9.8
10:25 1009 29.8 838 24.75 -9.5 14.9 80 -12.3 9.9
10:30 1009 29.8 838 24.75 -9.3 15.2 80 -12.2 10
10:35 1009 29.8 838 24.75 -9 15.7 78 -12.1 10.2
10:40 1009 29.8 838 24.75 -8.9 16 78 -12.1 10.2
10:45 1009 29.8 838 24.75 -8.9 16.1 78 -12.1 10.3
10:50 1009 29.8 838 24.75 -8.8 16.2 77 -12.1 10.3
10:55 1009 29.8 838 24.75 -8.9 16 77 -12.2 10.1
11:00 1009 29.8 838 24.75 -8.9 16 77 -12.2 10.1
11:05 1009 29.8 838 24.75 -8.6 16.5 76 -12.1 10.2
11:10 1009 29.8 838 24.75 -8.4 17 75 -12 10.3
11:15 1009 29.8 838 24.75 -8.2 17.2 74 -12 10.4
11:20 1009 29.8 838 24.75 -8.1 17.5 74 -11.9 10.6
11:25 1009 29.8 838 24.75 -7.9 17.7 74 -11.8 10.8
11:30 1009 29.8 838 24.75 -7.7 18.2 72 -11.8 10.8
11:35 1009 29.8 838 24.75 -7.5 18.5 72 -11.7 11
11:40 1009 29.8 838 24.75 -7.1 19.2 71 -11.6 11.1
11:45 1009 29.8 838 24.75 -6.6 20.1 70 -11.3 11.6
11:50 1009 29.8 838 24.75 -6.4 20.5 67 -11.5 11.2
11:55 1009 29.8 838 24.75 -5.7 21.7 64 -11.6 11.2
12:00 1009 29.8 838 24.75 -5.1 22.8 62 -11.4 11.5
12:05 1009 29.8 838 24.75 -4.5 23.9 60 -11.1 12
12:10 1009 29.8 838 24.75 -4 24.9 58 -11 12.2
12:15 1009 29.8 838 24.75 -3.5 25.8 56 -11 12.1
12:20 1009 29.8 838 24.75 -2.9 26.8 54 -11 12.2
12:25 1009 29.8 838 24.75 -3 26.6 56 -10.7 12.8
12:30 1009 29.8 838 24.75 -3.3 26 57 -10.7 12.7
12:35 1009 29.8 838 24.75 -3.9 25 58 -10.9 12.3
12:40 1008 29.77 838 24.75 -4.3 24.3 58 -11.4 11.5
12:45 1008 29.77 838 24.75 -4.3 24.2 61 -10.9 12.4
12:50 1008 29.77 838 24.75 -4.1 24.5 58 -11.2 11.9
12:55 1008 29.77 837 24.72 -4 24.8 57 -11.2 11.8
13:00 1008 29.77 837 24.72 -3.7 25.4 55 -11.6 11.2
13:05 1008 29.77 837 24.72 -3.7 25.4 55 -11.5 11.3
13:10 1008 29.77 837 24.72 -3.5 25.7 53 -11.8 10.8
13:15 1008 29.77 837 24.72 -3.6 25.6 52 -12 10.5
13:20 1008 29.77 837 24.72 -3.8 25.2 53 -11.9 10.5
13:25 1008 29.77 837 24.72 -4 24.7 56 -11.6 11.1
13:30 1008 29.77 837 24.72 -4.1 24.6 56 -11.6 11.1
13:35 1008 29.77 837 24.72 -4.1 24.7 56 -11.7 11
13:40 1008 29.77 837 24.72 -3.9 25.1 55 -11.6 11.1
13:45 1008 29.77 837 24.72 -3.8 25.2 55 -11.5 11.2
13:50 1008 29.77 837 24.72 -3.7 25.4 54 -11.6 11.1
13:55 1008 29.77 837 24.72 -3.7 25.3 54 -11.6 11
14:00 1008 29.77 837 24.72 -3.7 25.4 55 -11.5 11.3
14:05 1008 29.77 837 24.72 -3.9 25.1 57 -11.1 12
14:10 1007 29.74 837 24.72 -4.4 24 60 -11.1 12
14:15 1007 29.74 837 24.72 -4.5 23.8 59 -11.3 11.6
14:20 1007 29.74 837 24.72 -4.5 24 61 -10.9 12.4
14:25 1007 29.74 837 24.72 -4.7 23.6 63 -10.7 12.7
14:30 1007 29.74 837 24.72 -4.3 24.2 61 -10.8 12.6
14:35 1007 29.74 837 24.72 -3.8 25.1 57 -11.1 12
14:40 1007 29.74 837 24.72 -3.4 25.9 57 -10.8 12.6
14:45 1007 29.74 836 24.69 -3.2 26.3 57 -10.6 12.9
14:50 1007 29.74 836 24.69 -2.7 27.1 55 -10.6 12.9
14:55 1007 29.74 836 24.69 -2.7 27.2 53 -10.9 12.4
15:00 1007 29.74 836 24.69 -3.1 26.4 57 -10.5 13.1
15:05 1007 29.74 836 24.69 -3.1 26.5 55 -10.8 12.5
15:10 1007 29.74 836 24.69 -3 26.7 57 -10.3 13.5
15:15 1007 29.74 836 24.69 -3.6 25.4 59 -10.5 13.1
15:20 1007 29.74 836 24.69 -4 24.7 62 -10.3 13.4
15:25 1007 29.74 836 24.69 -4.3 24.3 62 -10.5 13.1
15:30 1007 29.74 836 24.69 -4.4 24.2 64 -10.2 13.7
15:35 1007 29.74 836 24.69 -4.3 24.2 62 -10.5 13.1
15:40 1007 29.74 836 24.69 -4.3 24.3 64 -10.2 13.7
15:45 1007 29.74 836 24.69 -4.3 24.2 64 -10.1 13.7
15:50 1007 29.74 836 24.69 -4.5 24 66 -10 14.1
15:55 1007 29.74 836 24.69 -4.8 23.3 68 -9.9 14.2
16:00 1007 29.74 836 24.69 -5.2 22.7 69 -10 14.1
16:05 1007 29.74 836 24.69 -5.3 22.4 70 -9.9 14.1
16:10 1007 29.74 836 24.69 -5.4 22.3 71 -9.9 14.2
16:15 1007 29.74 836 24.69 -5.2 22.6 70 -9.9 14.2
16:20 1007 29.74 836 24.69 -5 23 68 -10 14.1
16:25 1007 29.74 836 24.69 -5 22.9 68 -10.1 13.9
16:30 1007 29.74 836 24.69 -5.1 22.9 66 -10.4 13.2
16:35 1007 29.74 836 24.69 -5.1 22.8 70 -9.8 14.3
16:40 1007 29.74 836 24.69 -5.1 22.8 71 -9.7 14.6
16:45 1007 29.74 836 24.69 -5.2 22.7 70 -9.8 14.4
16:50 1007 29.74 836 24.69 -5.2 22.6 69 -9.9 14.1
16:55 1007 29.74 836 24.69 -5.2 22.7 70 -9.9 14.3
17:00 1007 29.74 837 24.72 -5.2 22.6 72 -9.5 14.9
17:05 1007 29.74 837 24.72 -5.2 22.6 70 -9.8 14.3
17:10 1007 29.74 837 24.72 -5.3 22.5 69 -10.1 13.8
17:15 1007 29.74 837 24.72 -5.3 22.4 69 -10.1 13.8
17:20 1007 29.74 837 24.72 -5.6 21.9 70 -10.3 13.5
17:25 1008 29.77 837 24.72 -6.1 21.1 71 -10.4 13.2
17:30 1008 29.77 837 24.72 -6.3 20.7 73 -10.5 13.2
17:35 1008 29.77 837 24.72 -6.4 20.4 73 -10.6 13
17:40 1008 29.77 837 24.72 -6.5 20.2 73 -10.6 12.9
17:45 1008 29.77 837 24.72 -6.7 20 73 -10.7 12.8
17:50 1008 29.77 837 24.72 -6.6 20.1 74 -10.6 12.9
17:55 1008 29.77 837 24.72 -6.6 20.1 74 -10.6 13
18:00 1008 29.77 837 24.72 -6.7 20 74 -10.6 12.8
18:05 1008 29.77 837 24.72 -6.6 20 73 -10.7 12.7
18:10 1008 29.77 837 24.72 -6.7 20 73 -10.7 12.7
18:15 1008 29.77 837 24.72 -6.6 20.1 73 -10.6 12.9
18:20 1008 29.77 837 24.72 -6.7 20 74 -10.6 12.9
18:25 1008 29.77 837 24.72 -6.6 20.1 73 -10.6 12.9
18:30 1008 29.77 837 24.72 -6.7 20 74 -10.6 12.9
18:35 1008 29.77 837 24.72 -6.7 19.9 74 -10.6 13
18:40 1008 29.77 837 24.72 -6.6 20.1 74 -10.5 13.1
18:45 1008 29.77 837 24.72 -6.5 20.2 74 -10.4 13.3
18:50 1008 29.77 837 24.72 -6.6 20.2 74 -10.5 13.2
18:55 1008 29.77 837 24.72 -6.6 20.2 74 -10.4 13.2
19:00 1008 29.77 837 24.72 -6.5 20.3 74 -10.4 13.3
19:05 1008 29.77 837 24.72 -6.4 20.5 74 -10.3 13.5
19:10 1008 29.77 837 24.72 -6.4 20.4 75 -10.2 13.6
19:15 1008 29.77 837 24.72 -6.4 20.4 75 -10.2 13.6
19:20 1008 29.77 837 24.72 -6.5 20.3 75 -10.2 13.7
19:25 1008 29.77 837 24.72 -6.5 20.3 75 -10.2 13.6
19:30 1008 29.77 837 24.72 -6.5 20.3 75 -10.2 13.6
19:35 1008 29.77 837 24.72 -6.5 20.2 75 -10.3 13.5
19:40 1008 29.77 837 24.72 -6.6 20.2 77 -10 13.9
19:45 1008 29.77 837 24.72 -6.6 20.1 77 -10 14
19:50 1008 29.77 837 24.72 -6.6 20.1 78 -9.8 14.3
19:55 1008 29.77 837 24.72 -6.5 20.3 78 -9.8 14.4
20:00 1008 29.77 837 24.72 -6.4 20.5 77 -9.7 14.5
20:05 1008 29.77 837 24.72 -6.5 20.3 78 -9.7 14.5
20:10 1008 29.77 837 24.72 -6.7 20 79 -9.8 14.4
20:15 1008 29.77 837 24.72 -6.8 19.8 79 -9.7 14.5
20:20 1008 29.77 837 24.72 -6.7 20 79 -9.7 14.5
20:25 1008 29.77 837 24.72 -6.5 20.2 79 -9.7 14.6
20:30 1008 29.77 837 24.72 -6.4 20.4 79 -9.6 14.8
20:35 1008 29.77 837 24.72 -6.4 20.4 79 -9.5 15
20:40 1008 29.77 837 24.72 -6.5 20.3 80 -9.5 14.9
20:45 1008 29.77 837 24.72 -6.6 20.2 80 -9.5 14.8
20:50 1008 29.77 837 24.72 -6.6 20.1 80 -9.6 14.8
20:55 1008 29.77 837 24.72 -6.6 20.1 80 -9.5 14.8
21:00 1008 29.77 837 24.72 -6.7 20 80 -9.6 14.7
21:05 1008 29.77 837 24.72 -6.7 19.9 78 -9.9 14.2
21:10 1008 29.77 837 24.72 -6.7 20 79 -9.7 14.6
21:15 1008 29.77 837 24.72 -6.7 19.9 80 -9.6 14.7
21:20 1008 29.77 837 24.72 -6.6 20.1 80 -9.5 14.8
21:25 1008 29.77 838 24.75 -6.5 20.4 79 -9.5 14.9
21:30 1008 29.77 838 24.75 -6.4 20.4 80 -9.4 15
21:35 1008 29.77 838 24.75 -6.5 20.3 79 -9.6 14.6
21:40 1009 29.8 838 24.75 -6.7 20 79 -9.7 14.6
21:45 1009 29.8 838 24.75 -6.8 19.8 79 -9.8 14.4
21:50 1009 29.8 838 24.75 -6.8 19.7 79 -9.9 14.3
21:55 1009 29.8 838 24.75 -6.9 19.6 79 -9.9 14.2
22:00 1009 29.8 838 24.75 -6.9 19.5 79 -10 13.9
22:05 1009 29.8 838 24.75 -7 19.3 79 -10.1 13.9
22:10 1009 29.8 838 24.75 -7.1 19.2 80 -9.9 14.1
22:15 1009 29.8 838 24.75 -7.1 19.2 80 -10.1 13.9
22:20 1009 29.8 838 24.75 -7.3 18.9 81 -10 14
22:25 1009 29.8 838 24.75 -7.2 19 80 -10 13.9
22:30 1009 29.8 838 24.75 -7.2 19.1 81 -10 14
22:35 1009 29.8 838 24.75 -7.1 19.1 80 -10 14
22:40 1009 29.8 838 24.75 -7.1 19.3 80 -10 13.9
22:45 1009 29.8 838 24.75 -7.2 19 81 -10 14
22:50 1009 29.8 838 24.75 -7.2 19 81 -10 14
22:55 1009 29.8 838 24.75 -7.1 19.1 82 -9.8 14.4
23:00 1009 29.8 838 24.75 -7.1 19.2 82 -9.7 14.6
23:05 1009 29.8 838 24.75 -7.1 19.3 82 -9.6 14.8
23:10 1009 29.8 838 24.75 -7 19.5 82 -9.5 14.9
23:15 1009 29.8 838 24.75 -6.9 19.5 83 -9.4 15.2
23:20 1009 29.8 838 24.75 -6.8 19.8 83 -9.1 15.5
23:25 1009 29.8 838 24.75 -6.7 20 82 -9.3 15.3
23:30 1009 29.8 838 24.75 -6.8 19.8 82 -9.3 15.2
23:35 1009 29.8 839 24.78 -6.8 19.8 82 -9.3 15.3
23:40 1009 29.8 839 24.78 -6.7 19.9 83 -9.2 15.5
23:45 1009 29.8 839 24.78 -6.7 20 83 -9.1 15.6
23:50 1009 29.8 839 24.78 -6.6 20.2 83 -9 15.8
23:55 1010 29.83 839 24.78 -6.5 20.3 83 -8.9 15.9
24:00 1010 29.83 839 24.78 -6.5 20.3 83 -8.9 16